sensor_id;sensor_type;location;lat;lon;timestamp;pressure;altitude;pressure_sealevel;temperature;humidity
57000;BME280;42891;50.006;21.964;2023-01-29T00:01:39;99704.16;;;0.70;82.94
57000;BME280;42891;50.006;21.964;2023-01-29T00:05:41;99719.25;;;0.60;82.23
57000;BME280;42891;50.006;21.964;2023-01-29T00:09:41;99717.00;;;0.49;82.39
57000;BME280;42891;50.006;21.964;2023-01-29T00:13:42;99695.38;;;0.23;83.31
57000;BME280;42891;50.006;21.964;2023-01-29T00:17:42;99716.97;;;0.25;84.01
57000;BME280;42891;50.006;21.964;2023-01-29T00:21:43;99732.66;;;0.47;83.82
57000;BME280;42891;50.006;21.964;2023-01-29T00:25:44;99723.38;;;0.40;83.22
57000;BME280;42891;50.006;21.964;2023-01-29T00:29:44;99702.06;;;0.30;82.79
57000;BME280;42891;50.006;21.964;2023-01-29T00:34:05;99718.59;;;0.53;82.65
57000;BME280;42891;50.006;21.964;2023-01-29T00:38:05;99722.31;;;0.46;82.96
57000;BME280;42891;50.006;21.964;2023-01-29T00:42:06;99697.97;;;0.48;80.87
57000;BME280;42891;50.006;21.964;2023-01-29T00:46:25;99720.19;;;0.81;80.67
57000;BME280;42891;50.006;21.964;2023-01-29T00:50:25;99728.63;;;0.88;80.85
57000;BME280;42891;50.006;21.964;2023-01-29T00:54:25;99731.78;;;0.96;80.07
57000;BME280;42891;50.006;21.964;2023-01-29T00:58:25;99736.13;;;0.95;79.83
57000;BME280;42891;50.006;21.964;2023-01-29T01:02:33;99722.78;;;1.05;79.58
57000;BME280;42891;50.006;21.964;2023-01-29T01:06:52;99721.34;;;0.97;80.08
57000;BME280;42891;50.006;21.964;2023-01-29T01:11:03;99723.69;;;1.04;79.82
57000;BME280;42891;50.006;21.964;2023-01-29T01:15:04;99720.91;;;1.08;79.82
57000;BME280;42891;50.006;21.964;2023-01-29T01:19:04;99708.97;;;1.02;79.22
57000;BME280;42891;50.006;21.964;2023-01-29T01:23:05;99715.94;;;1.02;79.49
57000;BME280;42891;50.006;21.964;2023-01-29T01:27:05;99731.03;;;1.16;79.83
57000;BME280;42891;50.006;21.964;2023-01-29T01:31:12;99716.63;;;1.07;79.81
57000;BME280;42891;50.006;21.964;2023-01-29T01:35:13;99731.38;;;1.07;80.25
57000;BME280;42891;50.006;21.964;2023-01-29T01:39:14;99733.13;;;1.06;80.77
57000;BME280;42891;50.006;21.964;2023-01-29T01:43:14;99727.44;;;0.96;81.37
57000;BME280;42891;50.006;21.964;2023-01-29T01:47:15;99698.09;;;0.93;81.26
57000;BME280;42891;50.006;21.964;2023-01-29T01:51:17;99709.94;;;1.00;81.40
57000;BME280;42891;50.006;21.964;2023-01-29T01:55:22;99725.59;;;0.98;81.26
57000;BME280;42891;50.006;21.964;2023-01-29T01:59:24;99732.94;;;1.11;81.49
57000;BME280;42891;50.006;21.964;2023-01-29T02:03:27;99719.84;;;1.14;81.04
57000;BME280;42891;50.006;21.964;2023-01-29T02:07:48;99731.94;;;1.15;80.96
57000;BME280;42891;50.006;21.964;2023-01-29T02:12:10;99720.88;;;1.10;81.33
57000;BME280;42891;50.006;21.964;2023-01-29T02:16:11;99723.28;;;1.14;81.12
57000;BME280;42891;50.006;21.964;2023-01-29T02:20:22;99729.25;;;1.16;81.53
57000;BME280;42891;50.006;21.964;2023-01-29T02:29:12;99712.72;;;0.95;81.69
57000;BME280;42891;50.006;21.964;2023-01-29T02:38:16;99693.69;;;0.95;81.18
57000;BME280;42891;50.006;21.964;2023-01-29T02:42:32;99680.97;;;0.87;81.05
57000;BME280;42891;50.006;21.964;2023-01-29T02:46:39;99690.28;;;0.93;80.83
57000;BME280;42891;50.006;21.964;2023-01-29T02:50:57;99677.47;;;0.88;81.51
57000;BME280;42891;50.006;21.964;2023-01-29T02:55:05;99645.75;;;0.78;81.23
57000;BME280;42891;50.006;21.964;2023-01-29T02:59:15;99676.63;;;0.88;81.27
57000;BME280;42891;50.006;21.964;2023-01-29T03:03:24;99694.66;;;0.92;81.00
57000;BME280;42891;50.006;21.964;2023-01-29T03:07:33;99687.81;;;0.90;81.62
57000;BME280;42891;50.006;21.964;2023-01-29T03:11:50;99699.97;;;0.89;81.55
57000;BME280;42891;50.006;21.964;2023-01-29T03:15:58;99712.59;;;0.75;81.67
57000;BME280;42891;50.006;21.964;2023-01-29T03:20:02;99705.69;;;0.75;81.57
57000;BME280;42891;50.006;21.964;2023-01-29T03:24:08;99701.38;;;0.74;81.57
57000;BME280;42891;50.006;21.964;2023-01-29T03:28:28;99695.72;;;0.63;81.35
57000;BME280;42891;50.006;21.964;2023-01-29T03:32:49;99705.22;;;0.64;81.80
57000;BME280;42891;50.006;21.964;2023-01-29T03:36:54;99714.31;;;0.76;81.90
57000;BME280;42891;50.006;21.964;2023-01-29T03:49:25;99706.13;;;0.87;81.76
57000;BME280;42891;50.006;21.964;2023-01-29T03:57:43;99703.66;;;0.83;81.15
57000;BME280;42891;50.006;21.964;2023-01-29T04:01:57;99694.41;;;0.75;81.24
57000;BME280;42891;50.006;21.964;2023-01-29T04:06:12;99703.22;;;0.71;81.83
57000;BME280;42891;50.006;21.964;2023-01-29T04:10:18;99682.09;;;0.56;81.41
57000;BME280;42891;50.006;21.964;2023-01-29T04:14:20;99677.47;;;0.64;80.48
57000;BME280;42891;50.006;21.964;2023-01-29T04:18:20;99678.88;;;0.49;80.19
57000;BME280;42891;50.006;21.964;2023-01-29T04:22:26;99674.50;;;0.50;80.87
57000;BME280;42891;50.006;21.964;2023-01-29T04:26:40;99694.09;;;0.60;80.30
57000;BME280;42891;50.006;21.964;2023-01-29T04:30:53;99684.69;;;0.32;80.07
57000;BME280;42891;50.006;21.964;2023-01-29T04:35:13;99697.50;;;0.37;79.57
57000;BME280;42891;50.006;21.964;2023-01-29T04:39:27;99704.03;;;0.24;79.65
57000;BME280;42891;50.006;21.964;2023-01-29T04:48:19;99704.03;;;0.24;80.94
57000;BME280;42891;50.006;21.964;2023-01-29T04:52:36;99688.19;;;0.31;80.69
57000;BME280;42891;50.006;21.964;2023-01-29T05:00:52;99688.22;;;0.30;78.85
57000;BME280;42891;50.006;21.964;2023-01-29T05:04:53;99692.72;;;0.25;78.70
57000;BME280;42891;50.006;21.964;2023-01-29T05:08:56;99681.56;;;0.23;78.50
57000;BME280;42891;50.006;21.964;2023-01-29T05:13:03;99672.59;;;0.31;78.59
57000;BME280;42891;50.006;21.964;2023-01-29T05:17:10;99669.94;;;0.33;78.08
57000;BME280;42891;50.006;21.964;2023-01-29T05:21:13;99662.03;;;0.36;78.34
57000;BME280;42891;50.006;21.964;2023-01-29T05:25:25;99665.25;;;0.43;78.23
57000;BME280;42891;50.006;21.964;2023-01-29T05:29:26;99656.03;;;0.34;76.98
57000;BME280;42891;50.006;21.964;2023-01-29T05:33:28;99643.31;;;0.26;74.28
57000;BME280;42891;50.006;21.964;2023-01-29T05:37:29;99627.28;;;0.15;72.68
57000;BME280;42891;50.006;21.964;2023-01-29T05:41:29;99656.38;;;0.25;72.43
57000;BME280;42891;50.006;21.964;2023-01-29T05:45:30;99651.81;;;0.31;72.24
57000;BME280;42891;50.006;21.964;2023-01-29T05:49:31;99649.22;;;0.31;73.40
57000;BME280;42891;50.006;21.964;2023-01-29T05:53:31;99669.28;;;0.28;73.00
57000;BME280;42891;50.006;21.964;2023-01-29T05:57:32;99684.31;;;0.18;73.75
57000;BME280;42891;50.006;21.964;2023-01-29T06:01:32;99683.41;;;0.19;73.89
57000;BME280;42891;50.006;21.964;2023-01-29T06:05:32;99684.78;;;0.29;74.88
57000;BME280;42891;50.006;21.964;2023-01-29T06:09:32;99694.38;;;0.27;73.87
57000;BME280;42891;50.006;21.964;2023-01-29T06:13:33;99693.16;;;0.12;73.84
57000;BME280;42891;50.006;21.964;2023-01-29T06:17:33;99694.16;;;0.08;74.44
57000;BME280;42891;50.006;21.964;2023-01-29T06:21:33;99701.69;;;0.16;74.20
57000;BME280;42891;50.006;21.964;2023-01-29T06:25:34;99708.22;;;0.28;74.40
57000;BME280;42891;50.006;21.964;2023-01-29T06:29:34;99707.59;;;0.21;74.33
57000;BME280;42891;50.006;21.964;2023-01-29T06:33:35;99699.84;;;0.20;73.66
57000;BME280;42891;50.006;21.964;2023-01-29T06:37:35;99711.03;;;0.22;73.14
57000;BME280;42891;50.006;21.964;2023-01-29T06:41:36;99712.97;;;0.15;71.92
57000;BME280;42891;50.006;21.964;2023-01-29T06:45:36;99710.84;;;0.01;70.74
57000;BME280;42891;50.006;21.964;2023-01-29T06:49:36;99720.00;;;-0.14;70.52
57000;BME280;42891;50.006;21.964;2023-01-29T06:53:37;99731.91;;;-0.07;69.93
57000;BME280;42891;50.006;21.964;2023-01-29T06:57:38;99722.50;;;-0.11;68.08
57000;BME280;42891;50.006;21.964;2023-01-29T07:01:38;99721.91;;;-0.19;66.77
57000;BME280;42891;50.006;21.964;2023-01-29T07:05:49;99712.41;;;-0.20;68.04
57000;BME280;42891;50.006;21.964;2023-01-29T07:09:49;99689.94;;;-0.21;67.78
57000;BME280;42891;50.006;21.964;2023-01-29T07:13:49;99697.50;;;-0.13;67.37
57000;BME280;42891;50.006;21.964;2023-01-29T07:17:59;99714.81;;;-0.14;67.30
57000;BME280;42891;50.006;21.964;2023-01-29T07:22:00;99719.50;;;0.02;68.05
57000;BME280;42891;50.006;21.964;2023-01-29T07:26:03;99706.53;;;0.02;69.11
57000;BME280;42891;50.006;21.964;2023-01-29T07:30:05;99705.13;;;-0.09;68.90
57000;BME280;42891;50.006;21.964;2023-01-29T07:34:05;99705.00;;;-0.06;69.26
57000;BME280;42891;50.006;21.964;2023-01-29T07:38:07;99713.47;;;-0.26;69.57
57000;BME280;42891;50.006;21.964;2023-01-29T07:42:07;99719.72;;;-0.31;69.06
57000;BME280;42891;50.006;21.964;2023-01-29T07:46:08;99720.59;;;-0.59;69.42
57000;BME280;42891;50.006;21.964;2023-01-29T07:50:08;99706.63;;;-0.55;69.79
57000;BME280;42891;50.006;21.964;2023-01-29T07:54:09;99731.56;;;-0.51;70.18
57000;BME280;42891;50.006;21.964;2023-01-29T07:58:09;99734.50;;;-0.62;68.82
57000;BME280;42891;50.006;21.964;2023-01-29T08:02:09;99742.19;;;-0.59;69.35
57000;BME280;42891;50.006;21.964;2023-01-29T08:06:10;99748.22;;;-0.58;69.06
57000;BME280;42891;50.006;21.964;2023-01-29T08:10:10;99754.22;;;-0.56;68.87
57000;BME280;42891;50.006;21.964;2023-01-29T08:14:11;99749.13;;;-0.59;68.39
57000;BME280;42891;50.006;21.964;2023-01-29T08:18:12;99774.94;;;-0.84;67.60
57000;BME280;42891;50.006;21.964;2023-01-29T08:22:12;99779.06;;;-0.77;68.52
57000;BME280;42891;50.006;21.964;2023-01-29T08:26:15;99785.75;;;-0.70;67.61
57000;BME280;42891;50.006;21.964;2023-01-29T08:30:15;99792.50;;;-0.64;67.49
57000;BME280;42891;50.006;21.964;2023-01-29T08:34:16;99795.19;;;-0.67;67.80
57000;BME280;42891;50.006;21.964;2023-01-29T08:38:16;99809.50;;;-0.54;68.19
57000;BME280;42891;50.006;21.964;2023-01-29T08:42:16;99808.50;;;-0.50;67.37
57000;BME280;42891;50.006;21.964;2023-01-29T08:46:17;99813.97;;;-0.59;66.97
57000;BME280;42891;50.006;21.964;2023-01-29T08:50:17;99812.72;;;-0.76;65.88
57000;BME280;42891;50.006;21.964;2023-01-29T08:54:18;99823.19;;;-0.79;65.56
57000;BME280;42891;50.006;21.964;2023-01-29T08:58:18;99816.25;;;-0.78;65.66
57000;BME280;42891;50.006;21.964;2023-01-29T09:02:19;99816.38;;;-0.83;64.93
57000;BME280;42891;50.006;21.964;2023-01-29T09:06:19;99816.44;;;-0.84;64.58
57000;BME280;42891;50.006;21.964;2023-01-29T09:10:19;99784.34;;;-0.82;65.33
57000;BME280;42891;50.006;21.964;2023-01-29T09:14:19;99805.50;;;-0.66;64.33
57000;BME280;42891;50.006;21.964;2023-01-29T09:18:20;99801.75;;;-0.56;64.09
57000;BME280;42891;50.006;21.964;2023-01-29T09:22:21;99784.81;;;-0.67;64.15
57000;BME280;42891;50.006;21.964;2023-01-29T09:26:21;99804.38;;;-0.57;65.05
57000;BME280;42891;50.006;21.964;2023-01-29T09:30:21;99793.03;;;-0.53;65.17
57000;BME280;42891;50.006;21.964;2023-01-29T09:34:21;99799.88;;;-0.22;65.54
57000;BME280;42891;50.006;21.964;2023-01-29T09:38:22;99787.75;;;-0.22;64.40
57000;BME280;42891;50.006;21.964;2023-01-29T09:42:44;99789.34;;;-0.18;64.62
57000;BME280;42891;50.006;21.964;2023-01-29T09:46:48;99785.50;;;-0.06;65.01
57000;BME280;42891;50.006;21.964;2023-01-29T09:50:52;99775.88;;;-0.02;65.14
57000;BME280;42891;50.006;21.964;2023-01-29T09:55:01;99760.88;;;0.06;62.52
57000;BME280;42891;50.006;21.964;2023-01-29T09:59:03;99740.88;;;-0.17;61.47
57000;BME280;42891;50.006;21.964;2023-01-29T10:07:42;99744.38;;;-0.18;60.71
57000;BME280;42891;50.006;21.964;2023-01-29T10:24:53;99707.09;;;-0.71;64.44
57000;BME280;42891;50.006;21.964;2023-01-29T10:28:56;99717.41;;;-0.97;64.72
57000;BME280;42891;50.006;21.964;2023-01-29T10:33:01;99697.41;;;-1.22;65.82
57000;BME280;42891;50.006;21.964;2023-01-29T10:37:14;99711.53;;;-1.34;66.20
57000;BME280;42891;50.006;21.964;2023-01-29T10:41:41;99714.03;;;-1.31;65.82
57000;BME280;42891;50.006;21.964;2023-01-29T10:46:22;99712.97;;;-0.94;66.04
57000;BME280;42891;50.006;21.964;2023-01-29T10:50:46;99683.75;;;-0.99;63.76
57000;BME280;42891;50.006;21.964;2023-01-29T10:54:58;99673.31;;;-0.97;62.56
57000;BME280;42891;50.006;21.964;2023-01-29T11:03:31;99644.94;;;-0.74;62.29
57000;BME280;42891;50.006;21.964;2023-01-29T11:07:32;99630.41;;;-0.79;62.33
57000;BME280;42891;50.006;21.964;2023-01-29T11:15:56;99613.09;;;-1.06;64.94
57000;BME280;42891;50.006;21.964;2023-01-29T11:19:56;99617.16;;;-0.97;63.81
57000;BME280;42891;50.006;21.964;2023-01-29T11:24:26;99612.75;;;-0.66;64.38
57000;BME280;42891;50.006;21.964;2023-01-29T11:28:43;99603.44;;;-1.00;63.56
57000;BME280;42891;50.006;21.964;2023-01-29T11:32:49;99590.94;;;-0.88;63.57
57000;BME280;42891;50.006;21.964;2023-01-29T11:36:58;99592.53;;;-0.57;64.68
57000;BME280;42891;50.006;21.964;2023-01-29T11:41:09;99586.34;;;-0.79;64.22
57000;BME280;42891;50.006;21.964;2023-01-29T11:45:26;99586.53;;;-0.59;65.36
57000;BME280;42891;50.006;21.964;2023-01-29T11:49:32;99555.53;;;-0.89;65.29
57000;BME280;42891;50.006;21.964;2023-01-29T11:53:44;99546.44;;;-0.75;64.08
57000;BME280;42891;50.006;21.964;2023-01-29T12:02:22;99552.81;;;-0.59;65.12
57000;BME280;42891;50.006;21.964;2023-01-29T12:06:34;99530.84;;;-0.74;63.40
57000;BME280;42891;50.006;21.964;2023-01-29T12:10:38;99533.59;;;-0.78;64.38
57000;BME280;42891;50.006;21.964;2023-01-29T12:14:39;99534.72;;;-0.60;63.46
57000;BME280;42891;50.006;21.964;2023-01-29T12:18:47;99507.81;;;-0.83;62.95
57000;BME280;42891;50.006;21.964;2023-01-29T12:27:24;99537.41;;;-0.38;61.74
57000;BME280;42891;50.006;21.964;2023-01-29T12:31:34;99531.94;;;-0.54;61.42
57000;BME280;42891;50.006;21.964;2023-01-29T12:35:41;99532.94;;;-0.58;61.42
57000;BME280;42891;50.006;21.964;2023-01-29T12:39:43;99519.63;;;-0.49;61.13
57000;BME280;42891;50.006;21.964;2023-01-29T12:43:55;99518.03;;;-0.53;61.34
57000;BME280;42891;50.006;21.964;2023-01-29T12:48:01;99517.09;;;-0.50;61.71
57000;BME280;42891;50.006;21.964;2023-01-29T12:52:12;99526.94;;;-0.60;61.19
57000;BME280;42891;50.006;21.964;2023-01-29T12:56:34;99524.22;;;-0.82;61.60
57000;BME280;42891;50.006;21.964;2023-01-29T13:00:39;99518.69;;;-0.72;61.68
57000;BME280;42891;50.006;21.964;2023-01-29T13:05:17;99508.47;;;-0.76;61.59
57000;BME280;42891;50.006;21.964;2023-01-29T13:09:26;99497.03;;;-0.71;61.97
57000;BME280;42891;50.006;21.964;2023-01-29T13:13:31;99507.47;;;-0.72;62.54
57000;BME280;42891;50.006;21.964;2023-01-29T13:17:40;99512.06;;;-0.80;63.48
57000;BME280;42891;50.006;21.964;2023-01-29T13:21:43;99507.28;;;-0.93;64.20
57000;BME280;42891;50.006;21.964;2023-01-29T13:25:44;99514.38;;;-0.98;63.68
57000;BME280;42891;50.006;21.964;2023-01-29T13:34:48;99523.34;;;-1.08;64.87
57000;BME280;42891;50.006;21.964;2023-01-29T13:38:55;99520.56;;;-0.77;65.79
57000;BME280;42891;50.006;21.964;2023-01-29T13:42:57;99521.25;;;-0.97;65.36
57000;BME280;42891;50.006;21.964;2023-01-29T13:47:09;99506.41;;;-0.93;65.90
57000;BME280;42891;50.006;21.964;2023-01-29T13:51:13;99493.53;;;-1.22;65.80
57000;BME280;42891;50.006;21.964;2023-01-29T13:55:23;99497.16;;;-1.27;66.42
57000;BME280;42891;50.006;21.964;2023-01-29T14:03:50;99489.72;;;-1.11;66.42
57000;BME280;42891;50.006;21.964;2023-01-29T14:07:51;99502.22;;;-0.97;66.74
57000;BME280;42891;50.006;21.964;2023-01-29T14:11:52;99494.72;;;-1.05;67.03
57000;BME280;42891;50.006;21.964;2023-01-29T14:20:01;99476.09;;;-1.16;66.92
57000;BME280;42891;50.006;21.964;2023-01-29T14:24:07;99481.00;;;-1.09;66.92
57000;BME280;42891;50.006;21.964;2023-01-29T14:28:23;99480.31;;;-1.14;66.86
57000;BME280;42891;50.006;21.964;2023-01-29T14:32:24;99480.78;;;-1.01;67.05
57000;BME280;42891;50.006;21.964;2023-01-29T14:36:25;99479.19;;;-1.05;67.17
57000;BME280;42891;50.006;21.964;2023-01-29T14:40:27;99486.00;;;-1.29;66.83
57000;BME280;42891;50.006;21.964;2023-01-29T14:48:47;99484.75;;;-1.17;68.12
57000;BME280;42891;50.006;21.964;2023-01-29T14:52:50;99491.81;;;-0.96;67.65
57000;BME280;42891;50.006;21.964;2023-01-29T14:56:59;99486.91;;;-1.04;67.73
57000;BME280;42891;50.006;21.964;2023-01-29T15:01:00;99479.97;;;-0.78;67.75
57000;BME280;42891;50.006;21.964;2023-01-29T15:05:03;99488.69;;;-0.79;67.93
57000;BME280;42891;50.006;21.964;2023-01-29T15:09:34;99486.44;;;-0.90;67.43
57000;BME280;42891;50.006;21.964;2023-01-29T15:13:44;99485.78;;;-0.96;68.17
57000;BME280;42891;50.006;21.964;2023-01-29T15:17:56;99482.25;;;-0.94;67.51
57000;BME280;42891;50.006;21.964;2023-01-29T15:26:06;99482.25;;;-0.94;68.23
57000;BME280;42891;50.006;21.964;2023-01-29T15:30:15;99479.28;;;-1.08;68.79
57000;BME280;42891;50.006;21.964;2023-01-29T15:34:15;99488.53;;;-1.01;67.61
57000;BME280;42891;50.006;21.964;2023-01-29T15:38:17;99486.09;;;-1.06;68.52
57000;BME280;42891;50.006;21.964;2023-01-29T15:42:18;99482.03;;;-0.88;68.45
57000;BME280;42891;50.006;21.964;2023-01-29T15:46:28;99487.88;;;-0.81;68.47
57000;BME280;42891;50.006;21.964;2023-01-29T15:50:31;99483.06;;;-0.66;68.80
57000;BME280;42891;50.006;21.964;2023-01-29T15:54:34;99473.75;;;-0.72;68.50
57000;BME280;42891;50.006;21.964;2023-01-29T15:58:35;99457.97;;;-0.91;68.99
57000;BME280;42891;50.006;21.964;2023-01-29T16:02:40;99466.44;;;-0.86;68.01
57000;BME280;42891;50.006;21.964;2023-01-29T16:06:41;99460.41;;;-0.87;68.18
57000;BME280;42891;50.006;21.964;2023-01-29T16:10:43;99452.47;;;-0.82;68.52
57000;BME280;42891;50.006;21.964;2023-01-29T16:14:45;99459.47;;;-0.84;68.13
57000;BME280;42891;50.006;21.964;2023-01-29T16:18:46;99449.81;;;-1.06;68.96
57000;BME280;42891;50.006;21.964;2023-01-29T16:22:48;99466.66;;;-0.92;68.80
57000;BME280;42891;50.006;21.964;2023-01-29T16:26:50;99451.91;;;-0.90;69.32
57000;BME280;42891;50.006;21.964;2023-01-29T16:30:58;99470.53;;;-0.79;69.29
57000;BME280;42891;50.006;21.964;2023-01-29T16:35:03;99470.41;;;-0.76;70.10
57000;BME280;42891;50.006;21.964;2023-01-29T16:39:05;99455.63;;;-0.74;70.03
57000;BME280;42891;50.006;21.964;2023-01-29T16:51:30;99447.56;;;-0.90;70.54
57000;BME280;42891;50.006;21.964;2023-01-29T16:55:38;99434.25;;;-1.06;70.57
57000;BME280;42891;50.006;21.964;2023-01-29T16:59:39;99429.72;;;-0.99;70.09
57000;BME280;42891;50.006;21.964;2023-01-29T17:03:41;99447.03;;;-0.74;69.93
57000;BME280;42891;50.006;21.964;2023-01-29T17:07:43;99438.22;;;-0.70;70.11
57000;BME280;42891;50.006;21.964;2023-01-29T17:11:44;99452.03;;;-0.70;69.84
57000;BME280;42891;50.006;21.964;2023-01-29T17:15:45;99446.97;;;-0.73;70.12
57000;BME280;42891;50.006;21.964;2023-01-29T17:19:46;99415.84;;;-0.98;70.87
57000;BME280;42891;50.006;21.964;2023-01-29T17:23:46;99452.16;;;-0.98;71.67
57000;BME280;42891;50.006;21.964;2023-01-29T17:27:47;99438.00;;;-1.14;72.02
57000;BME280;42891;50.006;21.964;2023-01-29T17:31:50;99454.03;;;-1.03;71.54
57000;BME280;42891;50.006;21.964;2023-01-29T17:35:51;99423.56;;;-1.22;71.92
57000;BME280;42891;50.006;21.964;2023-01-29T17:39:51;99433.25;;;-1.01;71.64
57000;BME280;42891;50.006;21.964;2023-01-29T17:43:54;99427.81;;;-1.19;71.42
57000;BME280;42891;50.006;21.964;2023-01-29T17:47:57;99404.25;;;-1.13;70.91
57000;BME280;42891;50.006;21.964;2023-01-29T17:51:58;99406.75;;;-1.10;71.04
57000;BME280;42891;50.006;21.964;2023-01-29T17:55:58;99423.47;;;-0.93;71.04
57000;BME280;42891;50.006;21.964;2023-01-29T17:59:59;99409.97;;;-1.03;71.34
57000;BME280;42891;50.006;21.964;2023-01-29T18:03:59;99397.72;;;-0.98;70.15
57000;BME280;42891;50.006;21.964;2023-01-29T18:07:59;99387.03;;;-0.89;69.84
57000;BME280;42891;50.006;21.964;2023-01-29T18:12:01;99378.72;;;-0.98;70.13
57000;BME280;42891;50.006;21.964;2023-01-29T18:16:01;99394.34;;;-1.00;69.49
57000;BME280;42891;50.006;21.964;2023-01-29T18:20:15;99384.94;;;-1.02;70.02
57000;BME280;42891;50.006;21.964;2023-01-29T18:24:16;99402.94;;;-0.99;70.32
57000;BME280;42891;50.006;21.964;2023-01-29T18:28:16;99393.22;;;-0.93;70.70
57000;BME280;42891;50.006;21.964;2023-01-29T18:32:19;99386.94;;;-1.11;70.40
57000;BME280;42891;50.006;21.964;2023-01-29T18:36:19;99391.59;;;-0.95;70.44
57000;BME280;42891;50.006;21.964;2023-01-29T18:40:19;99370.91;;;-0.97;70.36
57000;BME280;42891;50.006;21.964;2023-01-29T18:44:20;99359.59;;;-0.94;71.12
57000;BME280;42891;50.006;21.964;2023-01-29T18:48:20;99384.97;;;-0.79;70.74
57000;BME280;42891;50.006;21.964;2023-01-29T18:52:20;99382.16;;;-0.98;70.73
57000;BME280;42891;50.006;21.964;2023-01-29T18:56:21;99385.38;;;-0.91;71.05
57000;BME280;42891;50.006;21.964;2023-01-29T19:00:22;99365.22;;;-0.83;71.08
57000;BME280;42891;50.006;21.964;2023-01-29T19:04:22;99371.09;;;-1.03;69.50
57000;BME280;42891;50.006;21.964;2023-01-29T19:08:22;99375.97;;;-1.19;70.58
57000;BME280;42891;50.006;21.964;2023-01-29T19:12:23;99375.22;;;-0.97;70.48
57000;BME280;42891;50.006;21.964;2023-01-29T19:16:23;99378.56;;;-0.94;70.66
57000;BME280;42891;50.006;21.964;2023-01-29T19:20:24;99372.63;;;-0.97;69.80
57000;BME280;42891;50.006;21.964;2023-01-29T19:24:24;99369.31;;;-1.01;69.57
57000;BME280;42891;50.006;21.964;2023-01-29T19:28:24;99359.31;;;-1.12;70.34
57000;BME280;42891;50.006;21.964;2023-01-29T19:32:25;99349.44;;;-1.26;70.56
57000;BME280;42891;50.006;21.964;2023-01-29T19:36:27;99360.84;;;-1.06;70.25
57000;BME280;42891;50.006;21.964;2023-01-29T19:40:27;99362.44;;;-1.02;70.50
57000;BME280;42891;50.006;21.964;2023-01-29T19:44:27;99338.19;;;-1.25;70.22
57000;BME280;42891;50.006;21.964;2023-01-29T19:48:28;99350.53;;;-1.08;69.79
57000;BME280;42891;50.006;21.964;2023-01-29T19:52:28;99345.25;;;-1.05;70.16
57000;BME280;42891;50.006;21.964;2023-01-29T19:56:35;99337.56;;;-1.08;70.62
57000;BME280;42891;50.006;21.964;2023-01-29T20:00:35;99322.97;;;-1.10;70.01
57000;BME280;42891;50.006;21.964;2023-01-29T20:04:35;99337.78;;;-1.14;69.91
57000;BME280;42891;50.006;21.964;2023-01-29T20:08:35;99328.34;;;-1.15;70.61
57000;BME280;42891;50.006;21.964;2023-01-29T20:12:37;99313.34;;;-1.07;70.29
57000;BME280;42891;50.006;21.964;2023-01-29T20:16:37;99317.22;;;-1.18;70.89
57000;BME280;42891;50.006;21.964;2023-01-29T20:20:41;99317.75;;;-1.09;70.98
57000;BME280;42891;50.006;21.964;2023-01-29T20:24:42;99319.56;;;-1.11;70.53
57000;BME280;42891;50.006;21.964;2023-01-29T20:28:44;99317.53;;;-1.02;70.44
57000;BME280;42891;50.006;21.964;2023-01-29T20:32:45;99309.13;;;-0.86;69.73
57000;BME280;42891;50.006;21.964;2023-01-29T20:36:46;99286.13;;;-0.95;70.41
57000;BME280;42891;50.006;21.964;2023-01-29T20:40:46;99300.34;;;-1.05;70.32
57000;BME280;42891;50.006;21.964;2023-01-29T20:44:46;99297.50;;;-0.99;69.95
57000;BME280;42891;50.006;21.964;2023-01-29T20:48:47;99301.97;;;-1.02;70.47
57000;BME280;42891;50.006;21.964;2023-01-29T20:52:48;99303.31;;;-0.92;70.16
57000;BME280;42891;50.006;21.964;2023-01-29T20:56:48;99291.50;;;-0.99;70.57
57000;BME280;42891;50.006;21.964;2023-01-29T21:00:48;99277.69;;;-1.00;70.43
57000;BME280;42891;50.006;21.964;2023-01-29T21:04:49;99279.88;;;-1.13;71.06
57000;BME280;42891;50.006;21.964;2023-01-29T21:08:49;99266.03;;;-1.12;71.49
57000;BME280;42891;50.006;21.964;2023-01-29T21:12:49;99278.75;;;-1.06;71.77
57000;BME280;42891;50.006;21.964;2023-01-29T21:16:50;99270.63;;;-0.96;71.59
57000;BME280;42891;50.006;21.964;2023-01-29T21:20:51;99265.47;;;-0.96;71.31
57000;BME280;42891;50.006;21.964;2023-01-29T21:24:51;99263.50;;;-1.13;71.59
57000;BME280;42891;50.006;21.964;2023-01-29T21:28:51;99273.34;;;-1.23;72.33
57000;BME280;42891;50.006;21.964;2023-01-29T21:32:52;99252.72;;;-1.26;72.89
57000;BME280;42891;50.006;21.964;2023-01-29T21:36:52;99281.81;;;-0.94;72.85
57000;BME280;42891;50.006;21.964;2023-01-29T21:40:58;99282.06;;;-0.78;71.74
57000;BME280;42891;50.006;21.964;2023-01-29T21:44:59;99262.09;;;-1.22;74.00
57000;BME280;42891;50.006;21.964;2023-01-29T21:48:59;99271.72;;;-1.02;75.13
57000;BME280;42891;50.006;21.964;2023-01-29T21:53:00;99270.88;;;-1.02;75.94
57000;BME280;42891;50.006;21.964;2023-01-29T21:57:04;99253.00;;;-1.34;77.23
57000;BME280;42891;50.006;21.964;2023-01-29T22:01:05;99251.22;;;-1.08;76.90
57000;BME280;42891;50.006;21.964;2023-01-29T22:05:07;99240.88;;;-1.10;77.39
57000;BME280;42891;50.006;21.964;2023-01-29T22:09:07;99245.53;;;-1.18;77.82
57000;BME280;42891;50.006;21.964;2023-01-29T22:13:08;99236.78;;;-1.15;78.03
57000;BME280;42891;50.006;21.964;2023-01-29T22:17:08;99234.81;;;-1.09;77.48
57000;BME280;42891;50.006;21.964;2023-01-29T22:21:08;99232.00;;;-1.26;78.55
57000;BME280;42891;50.006;21.964;2023-01-29T22:25:09;99214.38;;;-1.16;78.48
57000;BME280;42891;50.006;21.964;2023-01-29T22:29:13;99215.44;;;-0.98;79.02
57000;BME280;42891;50.006;21.964;2023-01-29T22:33:15;99180.75;;;-0.96;78.23
57000;BME280;42891;50.006;21.964;2023-01-29T22:37:16;99197.06;;;-1.16;78.74
57000;BME280;42891;50.006;21.964;2023-01-29T22:41:16;99177.75;;;-1.31;79.57
57000;BME280;42891;50.006;21.964;2023-01-29T22:45:16;99177.34;;;-1.20;80.14
57000;BME280;42891;50.006;21.964;2023-01-29T22:49:17;99166.75;;;-1.38;80.23
57000;BME280;42891;50.006;21.964;2023-01-29T22:53:18;99157.22;;;-1.59;80.54
57000;BME280;42891;50.006;21.964;2023-01-29T22:57:18;99173.63;;;-1.37;81.01